Time;durP1;ratioP1;P1;durP2;ratioP2;P2;SDS_P1;SDS_P2;PMS_P1;PMS_P2;Temp;Humidity;BMP_temperature;BMP_pressure;BME280_temperature;BME280_humidity;BME280_pressure;Samples;Min_cycle;Max_cycle;Signal;HPM_P1;HPM_P2
2023/03/05 00:02:02;;;;;;;4.53;1.60;;;16.40;55.00;;;;;;5073916;28;20198;-48
2023/03/05 00:04:34;;;;;;;2.33;1.10;;;16.40;55.10;;;;;;5070058;28;20218;-47
2023/03/05 00:07:04;;;;;;;3.60;1.63;;;16.40;55.10;;;;;;5050999;28;20222;-48
2023/03/05 00:09:38;;;;;;;4.00;1.20;;;16.40;55.10;;;;;;5057503;28;20604;-48
2023/03/05 00:12:11;;;;;;;3.20;1.50;;;16.40;55.10;;;;;;5069584;28;20193;-47
2023/03/05 00:14:42;;;;;;;2.60;1.30;;;16.40;55.20;;;;;;5061983;28;20190;-47
2023/03/05 00:17:15;;;;;;;4.03;1.20;;;16.40;55.20;;;;;;5065509;28;20200;-47
2023/03/05 00:19:48;;;;;;;3.00;1.27;;;16.30;55.20;;;;;;5067247;28;20206;-47
2023/03/05 00:22:16;;;;;;;2.27;1.17;;;16.40;55.30;;;;;;5063410;28;20616;-47
2023/03/05 00:24:48;;;;;;;2.13;1.30;;;16.40;55.40;;;;;;5061664;28;20658;-48
2023/03/05 00:27:19;;;;;;;2.03;1.23;;;16.40;55.50;;;;;;5070619;28;20181;-47
2023/03/05 00:29:51;;;;;;;2.67;1.57;;;16.30;55.40;;;;;;5069656;28;20198;-48
2023/03/05 00:32:22;;;;;;;4.23;1.87;;;16.30;55.50;;;;;;5067087;28;20203;-47
2023/03/05 00:34:51;;;;;;;2.67;1.10;;;16.30;55.50;;;;;;5069955;28;20201;-47
2023/03/05 00:37:23;;;;;;;5.93;1.27;;;16.40;55.60;;;;;;5069720;28;20260;-47
2023/03/05 00:39:54;;;;;;;5.93;1.30;;;16.30;55.60;;;;;;5071005;28;20276;-47
2023/03/05 00:42:23;;;;;;;3.57;1.10;;;16.30;55.60;;;;;;5070041;28;20248;-47
2023/03/05 00:44:54;;;;;;;3.70;1.30;;;16.30;55.60;;;;;;5065075;28;20590;-47
2023/03/05 00:47:24;;;;;;;3.40;1.50;;;16.30;55.60;;;;;;5069184;28;20189;-48
2023/03/05 00:49:56;;;;;;;3.00;1.30;;;16.30;55.60;;;;;;5055358;28;20190;-48
2023/03/05 00:52:24;;;;;;;4.83;1.03;;;16.30;55.70;;;;;;5069878;28;20224;-47
2023/03/05 00:54:56;;;;;;;3.17;1.33;;;16.30;56.00;;;;;;5064260;28;20219;-47
2023/03/05 00:57:26;;;;;;;2.23;0.93;;;16.30;55.80;;;;;;5078374;28;20199;-47
2023/03/05 00:59:56;;;;;;;2.73;1.20;;;16.30;55.90;;;;;;5086817;28;20261;-47
2023/03/05 01:02:27;;;;;;;3.33;1.30;;;16.30;55.90;;;;;;5070127;28;20194;-48
2023/03/05 01:05:00;;;;;;;2.77;1.20;;;16.30;55.90;;;;;;5068715;28;20681;-49
2023/03/05 01:07:28;;;;;;;2.50;1.30;;;16.30;55.90;;;;;;5049532;28;20272;-47
2023/03/05 01:09:59;;;;;;;3.37;1.00;;;16.30;56.00;;;;;;5041416;28;20546;-47
2023/03/05 01:12:28;;;;;;;4.43;1.53;;;16.30;55.90;;;;;;5076837;28;20263;-47
2023/03/05 01:15:00;;;;;;;2.60;1.10;;;16.20;56.00;;;;;;5056300;28;20619;-47
2023/03/05 01:17:30;;;;;;;2.27;1.13;;;16.30;56.10;;;;;;5071440;28;20202;-48
2023/03/05 01:19:59;;;;;;;5.10;1.87;;;16.30;56.10;;;;;;5052412;28;20921;-47
2023/03/05 01:22:29;;;;;;;2.63;1.40;;;16.20;56.10;;;;;;5069035;28;20208;-47
2023/03/05 01:24:59;;;;;;;3.37;1.30;;;16.20;56.10;;;;;;5068238;28;20219;-47
2023/03/05 01:27:26;;;;;;;1.93;1.00;;;16.20;56.10;;;;;;5018778;28;20194;-48
2023/03/05 01:29:54;;;;;;;3.43;1.20;;;16.20;56.20;;;;;;5051472;28;20197;-47
2023/03/05 01:32:21;;;;;;;3.03;1.30;;;16.20;56.20;;;;;;5065634;28;20210;-48
2023/03/05 01:34:52;;;;;;;2.30;1.10;;;16.30;56.30;;;;;;5066571;28;20582;-48
2023/03/05 01:37:23;;;;;;;2.57;1.00;;;16.20;56.30;;;;;;5068624;28;20681;-47
2023/03/05 01:39:52;;;;;;;3.70;1.33;;;16.20;56.30;;;;;;5069001;28;20208;-47
2023/03/05 01:42:24;;;;;;;2.23;1.33;;;16.20;56.40;;;;;;5068730;28;20279;-47
2023/03/05 01:45:16;;;;;;;2.43;1.00;;;16.20;56.40;;;;;;5064184;28;20267;-47
2023/03/05 01:47:46;;;;;;;4.10;1.13;;;16.20;56.40;;;;;;5052304;28;20221;-47
2023/03/05 01:50:26;;;;;;;2.83;0.90;;;16.20;56.40;;;;;;5039802;28;20193;-48
2023/03/05 01:53:07;;;;;;;3.53;1.30;;;16.20;56.50;;;;;;5066539;28;20194;-48
2023/03/05 01:55:45;;;;;;;3.17;1.10;;;16.20;56.50;;;;;;5055007;28;20201;-48
2023/03/05 01:58:17;;;;;;;2.53;1.03;;;16.20;56.50;;;;;;5051561;28;20189;-47
2023/03/05 02:00:52;;;;;;;2.63;1.13;;;16.10;57.10;;;;;;5049190;28;20198;-47
2023/03/05 02:03:26;;;;;;;2.37;1.20;;;16.10;56.60;;;;;;5059680;28;20247;-48
2023/03/05 02:05:57;;;;;;;2.23;1.20;;;16.20;56.70;;;;;;5051383;28;20201;-48
2023/03/05 02:08:27;;;;;;;3.37;1.03;;;16.10;56.60;;;;;;5053529;28;20274;-48
2023/03/05 02:11:09;;;;;;;4.00;1.30;;;16.10;56.70;;;;;;5036942;28;20264;-47
2023/03/05 02:13:41;;;;;;;3.23;1.33;;;16.10;56.70;;;;;;5042086;28;20294;-47
2023/03/05 02:16:13;;;;;;;2.27;0.90;;;16.10;56.70;;;;;;5055884;28;20205;-47
2023/03/05 02:18:42;;;;;;;1.80;1.17;;;16.10;56.80;;;;;;5058513;28;20753;-48
2023/03/05 02:21:27;;;;;;;2.73;1.00;;;16.10;56.90;;;;;;5046604;28;20279;-48
2023/03/05 02:24:12;;;;;;;2.20;0.97;;;16.10;56.80;;;;;;5061435;28;20197;-47
2023/03/05 02:26:43;;;;;;;2.27;1.10;;;16.10;56.90;;;;;;5055826;28;20217;-47
2023/03/05 02:29:19;;;;;;;2.20;1.10;;;16.10;56.90;;;;;;5069135;28;20216;-47
2023/03/05 02:31:48;;;;;;;3.83;1.30;;;16.10;57.00;;;;;;5047313;28;20263;-47
2023/03/05 02:34:19;;;;;;;1.77;1.10;;;16.10;57.00;;;;;;5056345;28;20243;-47
2023/03/05 02:36:49;;;;;;;2.23;1.13;;;16.10;57.00;;;;;;5031681;28;20519;-48
2023/03/05 02:39:32;;;;;;;4.23;1.30;;;16.10;57.00;;;;;;5056669;28;20217;-48
2023/03/05 02:42:04;;;;;;;2.80;1.20;;;16.10;57.00;;;;;;5065184;28;20239;-47
2023/03/05 02:44:34;;;;;;;1.67;0.80;;;16.00;56.90;;;;;;5064870;28;20224;-47
2023/03/05 02:47:04;;;;;;;3.00;0.90;;;16.00;57.00;;;;;;5087444;28;20255;-47
2023/03/05 02:49:36;;;;;;;2.37;1.03;;;16.00;57.70;;;;;;5088276;28;20208;-47
2023/03/05 02:52:07;;;;;;;1.17;0.83;;;16.00;57.00;;;;;;5087786;28;20290;-47
2023/03/05 02:54:39;;;;;;;1.37;0.90;;;16.00;57.10;;;;;;5083465;28;20234;-48
2023/03/05 02:57:09;;;;;;;3.23;0.90;;;16.00;57.10;;;;;;5088938;28;20737;-47
2023/03/05 02:59:41;;;;;;;1.80;0.83;;;16.10;57.10;;;;;;5088144;28;20220;-48
2023/03/05 03:02:12;;;;;;;2.83;0.80;;;16.10;57.10;;;;;;5088297;28;20200;-47
2023/03/05 03:04:45;;;;;;;3.33;0.90;;;16.10;57.10;;;;;;5068758;28;20216;-47
2023/03/05 03:07:16;;;;;;;2.87;1.30;;;16.10;57.10;;;;;;5085034;28;20209;-48
2023/03/05 03:09:47;;;;;;;3.07;0.87;;;16.00;57.10;;;;;;5086858;28;20215;-48
2023/03/05 03:12:20;;;;;;;3.03;0.80;;;16.00;57.10;;;;;;5089209;28;20400;-47
2023/03/05 03:14:49;;;;;;;2.87;0.90;;;16.10;57.20;;;;;;5080190;28;20204;-47
2023/03/05 03:17:19;;;;;;;3.13;1.07;;;16.00;57.20;;;;;;5091747;28;20192;-47
2023/03/05 03:19:49;;;;;;;3.80;1.30;;;16.00;57.20;;;;;;5090242;28;20212;-47
2023/03/05 03:22:19;;;;;;;1.57;0.90;;;16.00;57.20;;;;;;5094680;28;20593;-47
2023/03/05 03:24:52;;;;;;;1.47;1.00;;;16.00;57.20;;;;;;5071631;28;20266;-48
2023/03/05 03:27:23;;;;;;;3.37;0.93;;;16.00;57.20;;;;;;5091513;28;20201;-48
2023/03/05 03:29:52;;;;;;;1.33;0.63;;;16.00;57.30;;;;;;5091668;28;20189;-47
2023/03/05 03:32:21;;;;;;;2.13;1.00;;;16.00;57.20;;;;;;5081205;28;20213;-47
2023/03/05 03:34:51;;;;;;;1.60;1.17;;;16.00;57.10;;;;;;5088657;28;20224;-47
2023/03/05 03:37:22;;;;;;;2.53;1.00;;;16.00;57.20;;;;;;5091402;28;20197;-48
2023/03/05 03:39:52;;;;;;;2.73;0.80;;;16.00;57.30;;;;;;5091090;28;20259;-47
2023/03/05 03:42:27;;;;;;;2.57;1.00;;;16.00;57.30;;;;;;5085883;28;20260;-48
2023/03/05 03:45:02;;;;;;;2.10;1.13;;;16.00;57.30;;;;;;5067862;28;20229;-47
2023/03/05 03:47:33;;;;;;;4.67;1.10;;;16.00;57.50;;;;;;5070327;28;20233;-47
2023/03/05 03:50:04;;;;;;;2.60;1.33;;;16.00;57.40;;;;;;5071444;28;20587;-47
2023/03/05 03:52:32;;;;;;;3.90;1.07;;;16.00;57.40;;;;;;5061017;28;20622;-48
2023/03/05 03:55:04;;;;;;;3.30;1.07;;;16.00;57.40;;;;;;5059699;28;20217;-48
2023/03/05 03:57:32;;;;;;;1.47;0.80;;;16.00;57.40;;;;;;5070725;28;20213;-47
2023/03/05 04:00:11;;;;;;;2.60;0.97;;;16.00;57.40;;;;;;5071348;28;20201;-47
2023/03/05 04:02:41;;;;;;;2.63;1.10;;;16.00;57.40;;;;;;5069041;28;20497;-47
2023/03/05 04:05:14;;;;;;;2.43;1.30;;;16.00;57.30;;;;;;5071059;28;20674;-47
2023/03/05 04:07:44;;;;;;;2.07;0.90;;;16.00;57.40;;;;;;5065854;28;20213;-47
2023/03/05 04:10:16;;;;;;;2.00;1.00;;;16.00;57.30;;;;;;5058793;28;20551;-47
2023/03/05 04:12:45;;;;;;;2.27;1.20;;;16.00;57.30;;;;;;5067965;28;20511;-47
2023/03/05 04:15:12;;;;;;;2.40;1.10;;;16.00;57.40;;;;;;5070873;28;20198;-47
2023/03/05 04:17:44;;;;;;;3.53;1.20;;;16.00;57.40;;;;;;5053422;28;20202;-47
2023/03/05 04:20:18;;;;;;;1.90;0.97;;;16.00;57.30;;;;;;5056650;28;20206;-48
2023/03/05 04:22:51;;;;;;;1.77;1.00;;;16.00;57.40;;;;;;5067133;28;20201;-47
2023/03/05 04:25:18;;;;;;;2.40;1.10;;;16.00;57.50;;;;;;5071391;28;20240;-48
2023/03/05 04:27:49;;;;;;;2.67;1.13;;;15.90;57.40;;;;;;5069991;28;20221;-48
2023/03/05 04:30:19;;;;;;;2.73;1.10;;;16.00;57.50;;;;;;5070705;28;20193;-47
2023/03/05 04:32:50;;;;;;;3.40;1.50;;;16.00;57.50;;;;;;5065627;28;20224;-47
2023/03/05 04:35:23;;;;;;;2.93;0.83;;;16.00;57.50;;;;;;5071180;28;20197;-47
2023/03/05 04:37:51;;;;;;;1.30;1.00;;;16.00;57.50;;;;;;5077454;28;20197;-47
2023/03/05 04:40:22;;;;;;;1.60;0.97;;;16.00;57.50;;;;;;5071044;28;20201;-47
2023/03/05 04:42:50;;;;;;;2.20;1.20;;;16.00;57.50;;;;;;5062703;28;20225;-47
2023/03/05 04:45:21;;;;;;;2.20;1.00;;;16.00;57.50;;;;;;5085069;28;20224;-47
2023/03/05 04:48:03;;;;;;;3.70;1.10;;;16.00;57.50;;;;;;5083039;28;20265;-47
2023/03/05 04:50:34;;;;;;;2.60;1.00;;;15.90;57.50;;;;;;5092704;28;20193;-47
2023/03/05 04:53:05;;;;;;;3.73;1.63;;;16.00;57.60;;;;;;5090895;28;20755;-47
2023/03/05 04:55:36;;;;;;;1.77;0.80;;;16.00;57.60;;;;;;5069176;28;20216;-48
2023/03/05 04:58:05;;;;;;;1.70;0.80;;;16.00;57.60;;;;;;5090287;28;20196;-47
2023/03/05 05:00:39;;;;;;;2.83;1.17;;;15.90;57.50;;;;;;5087974;28;20193;-47
2023/03/05 05:03:08;;;;;;;2.43;1.10;;;15.90;57.50;;;;;;5097310;28;20201;-47
2023/03/05 05:05:40;;;;;;;1.53;0.73;;;15.90;57.50;;;;;;5082405;28;20583;-47
2023/03/05 05:08:11;;;;;;;2.57;0.90;;;16.00;57.50;;;;;;5070104;28;20210;-47
2023/03/05 05:10:40;;;;;;;2.53;1.10;;;16.00;57.60;;;;;;5085864;28;20193;-47
2023/03/05 05:13:15;;;;;;;2.80;0.90;;;15.90;57.70;;;;;;5074680;28;20228;-47
2023/03/05 05:15:45;;;;;;;1.47;1.00;;;15.90;57.70;;;;;;5082617;28;20201;-47
2023/03/05 05:18:15;;;;;;;1.93;0.80;;;15.90;57.70;;;;;;5080472;28;20205;-47
2023/03/05 05:20:45;;;;;;;2.87;1.00;;;15.90;57.70;;;;;;5069228;28;20528;-47
2023/03/05 05:23:15;;;;;;;2.47;0.80;;;15.90;57.70;;;;;;5085107;28;20254;-47
2023/03/05 05:26:05;;;;;;;2.60;0.87;;;15.90;57.60;;;;;;5096218;28;20213;-47
2023/03/05 05:28:45;;;;;;;1.73;0.97;;;15.90;57.70;;;;;;5079344;28;20740;-47
2023/03/05 05:31:16;;;;;;;2.10;0.90;;;15.90;57.70;;;;;;5073170;28;20292;-47
2023/03/05 05:33:48;;;;;;;6.20;1.07;;;15.90;57.70;;;;;;5078850;28;20193;-47
2023/03/05 05:36:18;;;;;;;1.70;1.10;;;15.90;57.70;;;;;;5091547;28;20201;-47
2023/03/05 05:38:49;;;;;;;3.67;0.97;;;15.90;57.70;;;;;;5072878;28;20560;-47
2023/03/05 05:41:21;;;;;;;1.77;1.00;;;15.90;57.70;;;;;;5089354;28;20337;-48
2023/03/05 05:43:49;;;;;;;3.30;1.50;;;15.90;57.70;;;;;;5054740;28;20237;-47
2023/03/05 05:46:19;;;;;;;1.40;0.73;;;15.90;57.70;;;;;;5089191;28;20221;-47
2023/03/05 05:48:47;;;;;;;3.60;1.57;;;15.90;57.70;;;;;;5093626;28;20733;-48
2023/03/05 05:51:23;;;;;;;1.77;0.83;;;15.90;57.80;;;;;;5072412;28;20193;-47
2023/03/05 05:53:54;;;;;;;3.03;1.30;;;15.90;57.80;;;;;;5089448;28;20196;-47
2023/03/05 05:56:21;;;;;;;1.60;0.87;;;15.90;57.70;;;;;;5085714;28;20212;-47
2023/03/05 05:58:48;;;;;;;2.27;1.00;;;15.90;57.70;;;;;;5069698;28;20197;-47
2023/03/05 06:01:39;;;;;;;2.67;0.80;;;15.90;57.80;;;;;;5054635;28;20642;-47
2023/03/05 06:04:10;;;;;;;1.40;0.90;;;15.90;57.70;;;;;;5060888;28;20200;-48
2023/03/05 06:06:40;;;;;;;2.50;1.10;;;15.90;57.70;;;;;;5062106;28;20218;-47
2023/03/05 06:09:09;;;;;;;2.40;0.97;;;15.90;57.70;;;;;;5088495;28;20204;-49
2023/03/05 06:11:39;;;;;;;1.80;1.03;;;15.90;57.70;;;;;;5073457;28;20210;-47
2023/03/05 06:14:13;;;;;;;2.67;1.30;;;15.90;57.60;;;;;;5088828;28;20311;-47
2023/03/05 06:16:46;;;;;;;2.33;1.13;;;15.90;57.70;;;;;;5075109;28;20209;-48
2023/03/05 06:19:15;;;;;;;2.07;1.07;;;15.90;57.70;;;;;;5065289;28;20205;-47
2023/03/05 06:21:44;;;;;;;1.30;0.93;;;15.90;57.70;;;;;;5070698;28;20205;-47
2023/03/05 06:24:15;;;;;;;1.63;1.10;;;15.90;57.60;;;;;;5056518;28;20192;-48
2023/03/05 06:26:45;;;;;;;2.80;1.00;;;15.90;58.20;;;;;;5078127;28;20213;-48
2023/03/05 06:29:15;;;;;;;1.50;0.80;;;15.90;57.60;;;;;;5075953;28;20645;-48
2023/03/05 06:31:46;;;;;;;2.93;0.90;;;15.90;57.70;;;;;;5057907;28;20209;-47
2023/03/05 06:34:16;;;;;;;3.33;1.27;;;15.90;57.50;;;;;;5085143;28;20194;-48
2023/03/05 06:36:46;;;;;;;3.63;0.90;;;15.90;57.60;;;;;;5077475;28;20276;-48
2023/03/05 06:39:16;;;;;;;3.50;1.00;;;15.90;57.50;;;;;;5088926;28;20223;-49
2023/03/05 06:41:51;;;;;;;2.13;1.00;;;15.90;57.60;;;;;;5088253;28;20240;-48
2023/03/05 06:44:20;;;;;;;1.83;1.10;;;15.90;57.50;;;;;;5032492;28;20248;-48
2023/03/05 06:46:50;;;;;;;3.73;1.27;;;15.90;57.40;;;;;;5077292;28;20269;-47
2023/03/05 06:49:18;;;;;;;3.13;1.30;;;15.90;57.40;;;;;;5083537;28;20205;-47
2023/03/05 06:51:50;;;;;;;1.53;0.90;;;15.90;57.40;;;;;;5083613;28;20201;-47
2023/03/05 06:54:18;;;;;;;1.70;1.00;;;15.90;57.50;;;;;;5082590;28;20594;-47
2023/03/05 06:56:49;;;;;;;2.90;1.13;;;15.90;57.40;;;;;;5075420;28;20213;-47
2023/03/05 06:59:20;;;;;;;3.07;1.17;;;15.90;57.40;;;;;;5080470;28;20202;-47
2023/03/05 07:01:51;;;;;;;3.13;1.33;;;15.80;57.40;;;;;;5081211;28;20201;-48
2023/03/05 07:04:24;;;;;;;1.23;0.80;;;15.80;57.40;;;;;;5071397;28;20198;-47
2023/03/05 07:06:53;;;;;;;1.60;1.00;;;15.80;57.40;;;;;;5071453;28;20659;-47
2023/03/05 07:09:22;;;;;;;2.77;1.17;;;15.80;57.50;;;;;;5076433;28;20323;-47
2023/03/05 07:11:53;;;;;;;3.67;1.30;;;15.80;57.50;;;;;;5070948;28;20198;-47
2023/03/05 07:14:24;;;;;;;2.70;1.00;;;15.90;57.40;;;;;;5055836;28;20205;-47
2023/03/05 07:16:51;;;;;;;2.73;1.40;;;15.80;57.40;;;;;;5069241;28;20204;-47
2023/03/05 07:19:21;;;;;;;1.83;0.90;;;15.80;57.40;;;;;;5036333;28;20224;-47
2023/03/05 07:21:52;;;;;;;3.10;1.50;;;15.80;57.40;;;;;;5065649;28;20599;-47
2023/03/05 07:24:28;;;;;;;2.40;1.20;;;15.80;57.40;;;;;;5071604;28;20274;-47
2023/03/05 07:27:00;;;;;;;1.90;1.13;;;15.90;57.50;;;;;;5061255;28;20228;-47
2023/03/05 07:29:27;;;;;;;1.20;0.60;;;15.80;57.40;;;;;;5054162;28;20197;-47
2023/03/05 07:31:58;;;;;;;1.60;1.03;;;15.80;57.40;;;;;;5053732;28;20219;-48
2023/03/05 07:34:26;;;;;;;4.10;1.43;;;15.80;57.40;;;;;;5070145;28;20294;-47
2023/03/05 07:36:55;;;;;;;2.63;1.03;;;15.80;57.40;;;;;;5069795;28;20193;-48
2023/03/05 07:39:30;;;;;;;3.33;1.30;;;15.80;57.40;;;;;;5064116;28;20206;-47
2023/03/05 07:42:09;;;;;;;2.83;1.20;;;15.90;57.40;;;;;;5066202;28;20226;-48
2023/03/05 07:44:37;;;;;;;1.93;1.03;;;15.80;57.40;;;;;;5062173;28;20209;-47
2023/03/05 07:47:07;;;;;;;4.07;1.20;;;15.80;57.40;;;;;;5060989;28;20241;-47
2023/03/05 07:49:38;;;;;;;4.07;1.10;;;15.80;57.40;;;;;;5055925;28;20190;-48
2023/03/05 07:52:09;;;;;;;2.17;0.90;;;15.80;57.60;;;;;;5056116;28;20538;-47
2023/03/05 07:54:41;;;;;;;2.37;1.40;;;15.90;58.90;;;;;;5054836;28;20186;-48
2023/03/05 07:57:09;;;;;;;2.73;1.40;;;15.90;58.90;;;;;;5054586;28;20239;-48
2023/03/05 07:59:40;;;;;;;2.87;1.17;;;16.00;58.20;;;;;;5052167;28;20202;-47
2023/03/05 08:02:11;;;;;;;3.33;1.23;;;16.00;58.60;;;;;;5046986;28;20194;-48
2023/03/05 08:04:53;;;;;;;2.43;1.43;;;16.10;58.60;;;;;;5062667;28;20590;-47
2023/03/05 08:07:23;;;;;;;3.40;1.13;;;16.10;58.60;;;;;;5068041;28;20689;-47
2023/03/05 08:09:56;;;;;;;2.07;1.23;;;16.10;58.80;;;;;;5069185;28;20539;-47
2023/03/05 08:12:28;;;;;;;2.23;0.70;;;16.10;58.70;;;;;;5066186;28;20234;-47
2023/03/05 08:15:13;;;;;;;2.50;1.17;;;16.10;58.70;;;;;;5063672;28;20198;-48
2023/03/05 08:17:45;;;;;;;3.07;1.40;;;16.10;58.70;;;;;;5064476;28;20189;-48
2023/03/05 08:20:18;;;;;;;2.77;0.80;;;16.10;58.60;;;;;;5064129;28;20214;-48
2023/03/05 08:22:49;;;;;;;1.60;1.00;;;16.10;58.70;;;;;;5065287;28;20240;-49
2023/03/05 08:25:30;;;;;;;2.30;1.17;;;16.10;58.60;;;;;;5066368;28;20208;-48
2023/03/05 08:28:05;;;;;;;6.17;1.67;;;16.10;58.40;;;;;;5054975;28;20213;-48
2023/03/05 08:30:38;;;;;;;4.30;1.50;;;16.10;58.30;;;;;;5055051;28;20537;-47
2023/03/05 08:33:16;;;;;;;2.07;1.13;;;16.20;58.10;;;;;;5043400;28;20216;-47
2023/03/05 08:35:47;;;;;;;3.03;1.30;;;16.10;58.10;;;;;;5067590;28;20741;-48
2023/03/05 08:38:17;;;;;;;2.90;1.37;;;16.10;58.20;;;;;;5071594;28;20201;-48
2023/03/05 08:40:47;;;;;;;2.57;1.20;;;16.20;58.10;;;;;;5063179;28;20213;-48
2023/03/05 08:43:17;;;;;;;2.53;1.20;;;16.10;57.90;;;;;;5054520;28;20245;-48
2023/03/05 08:45:48;;;;;;;2.80;0.90;;;16.20;57.90;;;;;;5067213;28;20209;-47
2023/03/05 08:48:21;;;;;;;1.87;1.17;;;16.30;58.10;;;;;;5050586;28;20198;-47
2023/03/05 08:50:51;;;;;;;3.10;1.53;;;16.30;57.70;;;;;;5065610;28;20648;-49
2023/03/05 08:53:23;;;;;;;10.93;1.40;;;16.30;57.80;;;;;;5073065;28;20235;-48
2023/03/05 08:55:58;;;;;;;3.27;1.40;;;16.30;57.60;;;;;;5069564;28;20213;-47
2023/03/05 08:58:31;;;;;;;1.83;1.20;;;16.30;57.50;;;;;;5047805;28;20197;-47
2023/03/05 09:01:02;;;;;;;1.90;1.13;;;16.30;57.70;;;;;;5062961;28;20202;-47
2023/03/05 09:03:32;;;;;;;4.27;1.20;;;16.30;57.60;;;;;;5069870;28;20646;-48
2023/03/05 09:06:07;;;;;;;2.67;1.63;;;16.30;57.60;;;;;;5034430;28;20783;-48
2023/03/05 09:08:37;;;;;;;2.73;1.17;;;16.30;57.60;;;;;;5045875;28;20206;-47
2023/03/05 09:11:10;;;;;;;3.70;1.00;;;16.30;57.30;;;;;;5065791;28;20193;-48
2023/03/05 09:13:40;;;;;;;1.77;0.80;;;16.30;57.10;;;;;;5047094;28;20270;-48
2023/03/05 09:16:14;;;;;;;4.20;1.37;;;16.40;57.00;;;;;;5043169;28;20194;-47
2023/03/05 09:18:44;;;;;;;3.23;1.30;;;16.30;57.10;;;;;;5043268;28;20197;-48
2023/03/05 09:21:21;;;;;;;4.60;1.77;;;16.30;56.90;;;;;;5068191;28;20217;-48
2023/03/05 09:23:51;;;;;;;2.10;1.20;;;16.30;57.10;;;;;;5066573;28;20235;-47
2023/03/05 09:26:19;;;;;;;1.93;1.50;;;16.30;57.10;;;;;;5062423;28;20216;-48
2023/03/05 09:28:52;;;;;;;1.70;1.30;;;16.30;57.20;;;;;;5045988;28;20538;-47
2023/03/05 09:31:23;;;;;;;3.50;1.37;;;16.30;57.20;;;;;;5047297;28;20194;-48
2023/03/05 09:33:53;;;;;;;3.13;1.50;;;16.30;57.20;;;;;;5065840;28;20181;-47
2023/03/05 09:36:28;;;;;;;1.80;1.00;;;16.30;57.00;;;;;;5067530;28;20541;-47
2023/03/05 09:39:03;;;;;;;2.67;1.57;;;16.40;57.00;;;;;;5014229;28;20186;-48
2023/03/05 09:42:22;;;;;;;3.80;1.10;;;16.30;57.00;;;;;;5067701;28;20216;-48
2023/03/05 09:45:38;;;;;;;2.00;1.03;;;16.40;57.40;;;;;;5082120;28;20681;-47
2023/03/05 09:48:29;;;;;;;1.60;0.80;;;16.40;57.40;;;;;;5087817;28;20232;-47
2023/03/05 09:51:03;;;;;;;2.10;1.30;;;16.40;57.50;;;;;;5074075;28;20205;-47
2023/03/05 09:54:16;;;;;;;1.07;0.70;;;16.40;57.40;;;;;;5075547;28;20220;-47
2023/03/05 09:56:55;;;;;;;1.37;0.83;;;16.50;57.50;;;;;;4993181;28;20711;-48
2023/03/05 09:59:38;;;;;;;2.50;1.20;;;16.50;57.20;;;;;;5000302;28;20453;-47
2023/03/05 10:02:34;;;;;;;2.10;1.27;;;16.50;57.40;;;;;;5008845;28;20199;-47
2023/03/05 10:05:44;;;;;;;1.07;0.70;;;16.50;57.20;;;;;;5001469;28;20216;-48
2023/03/05 10:08:19;;;;;;;1.27;0.93;;;16.50;56.90;;;;;;4985951;28;20231;-49
2023/03/05 10:10:53;;;;;;;2.57;1.13;;;16.50;57.00;;;;;;5002137;28;20302;-48
2023/03/05 10:13:36;;;;;;;1.30;0.70;;;16.50;57.20;;;;;;5003003;28;20364;-48
2023/03/05 10:16:24;;;;;;;1.60;1.10;;;16.50;56.80;;;;;;4998185;28;20208;-48
2023/03/05 10:19:38;;;;;;;1.77;0.83;;;16.50;56.60;;;;;;4990415;28;20204;-48
2023/03/05 10:22:48;;;;;;;2.37;0.90;;;16.50;56.60;;;;;;4994222;28;20696;-47
2023/03/05 10:25:52;;;;;;;2.23;0.77;;;16.50;57.00;;;;;;5082183;28;20209;-48
2023/03/05 10:28:56;;;;;;;1.50;0.90;;;16.50;56.30;;;;;;5085896;28;20216;-48
2023/03/05 10:32:03;;;;;;;1.80;0.93;;;16.50;56.80;;;;;;5084097;28;20291;-47
2023/03/05 10:35:00;;;;;;;5.33;0.90;;;16.50;57.10;;;;;;5085328;28;20224;-47
2023/03/05 10:37:51;;;;;;;6.50;1.23;;;16.50;57.20;;;;;;5085481;28;20678;-48
2023/03/05 10:40:39;;;;;;;1.20;0.73;;;16.40;57.10;;;;;;5086082;28;20209;-47
2023/03/05 10:43:50;;;;;;;2.47;0.70;;;16.40;57.10;;;;;;5069170;28;20240;-48
2023/03/05 10:46:26;;;;;;;5.33;0.80;;;16.40;56.90;;;;;;4993543;28;20210;-49
2023/03/05 10:49:11;;;;;;;2.80;0.80;;;16.40;56.90;;;;;;5036994;28;20185;-48
2023/03/05 10:51:53;;;;;;;0.97;0.57;;;16.40;56.80;;;;;;5056414;28;20201;-48
2023/03/05 10:54:34;;;;;;;2.83;1.10;;;16.40;56.90;;;;;;5067253;28;20216;-47
2023/03/05 10:57:17;;;;;;;2.87;0.93;;;16.40;56.90;;;;;;5043016;28;20535;-47
2023/03/05 11:00:21;;;;;;;1.83;0.83;;;16.40;56.70;;;;;;5074278;28;20212;-47
2023/03/05 11:03:07;;;;;;;2.53;0.73;;;16.40;56.70;;;;;;5073467;28;20218;-48
2023/03/05 11:05:47;;;;;;;1.07;0.40;;;16.40;56.60;;;;;;5071064;28;20208;-48
2023/03/05 11:08:33;;;;;;;1.97;0.63;;;16.40;56.60;;;;;;5053296;28;20230;-48
2023/03/05 11:11:19;;;;;;;5.07;0.83;;;16.40;56.60;;;;;;5050914;28;20710;-48
2023/03/05 11:13:59;;;;;;;1.07;0.67;;;16.40;56.60;;;;;;5055159;28;20585;-47
2023/03/05 11:16:46;;;;;;;1.53;0.77;;;16.40;56.60;;;;;;5049535;28;20520;-48
2023/03/05 11:19:35;;;;;;;3.03;0.97;;;16.40;56.50;;;;;;5062726;28;20648;-47
2023/03/05 11:22:21;;;;;;;1.87;0.70;;;16.40;56.50;;;;;;5050048;28;20194;-48
2023/03/05 11:25:11;;;;;;;1.03;0.60;;;16.40;56.40;;;;;;5053334;28;20194;-47
2023/03/05 11:28:01;;;;;;;2.10;0.80;;;16.40;56.40;;;;;;5066698;28;20209;-47
2023/03/05 11:30:36;;;;;;;2.63;0.80;;;16.40;56.40;;;;;;5067908;28;20198;-47
2023/03/05 11:33:22;;;;;;;2.63;0.63;;;16.40;56.30;;;;;;5075621;28;20273;-47
2023/03/05 11:36:33;;;;;;;2.07;1.10;;;16.40;56.30;;;;;;5056980;28;20411;-48
2023/03/05 11:39:14;;;;;;;1.80;0.93;;;16.40;56.30;;;;;;5049315;28;20726;-48
2023/03/05 11:41:51;;;;;;;3.57;0.80;;;16.40;56.30;;;;;;5073423;28;20193;-47
2023/03/05 11:44:39;;;;;;;1.60;0.70;;;16.40;56.30;;;;;;5053687;28;20252;-47
2023/03/05 11:47:45;;;;;;;1.77;0.60;;;16.40;56.20;;;;;;5074146;28;20212;-47
2023/03/05 11:50:20;;;;;;;1.90;0.80;;;16.40;56.20;;;;;;5078610;28;20204;-48
2023/03/05 11:53:00;;;;;;;1.40;0.70;;;16.40;56.20;;;;;;5084667;28;20177;-48
2023/03/05 11:55:54;;;;;;;1.90;0.70;;;16.40;56.20;;;;;;5054553;28;20209;-47
2023/03/05 11:58:50;;;;;;;1.83;0.80;;;16.40;56.10;;;;;;5057896;28;20213;-47
2023/03/05 12:01:29;;;;;;;1.23;0.83;;;16.40;56.10;;;;;;5060699;28;20205;-47
2023/03/05 12:04:11;;;;;;;2.13;0.83;;;16.40;56.70;;;;;;5077739;28;20631;-48
2023/03/05 12:07:00;;;;;;;2.77;0.57;;;16.40;56.10;;;;;;5054902;28;20262;-48
2023/03/05 12:09:46;;;;;;;1.67;0.60;;;16.40;56.10;;;;;;5074239;28;20605;-47
2023/03/05 12:12:53;;;;;;;1.23;0.83;;;16.40;56.10;;;;;;5045773;28;20202;-48
2023/03/05 12:15:58;;;;;;;1.73;0.87;;;16.40;56.60;;;;;;5073536;28;20184;-49
2023/03/05 12:18:46;;;;;;;2.67;0.70;;;16.40;57.40;;;;;;5047256;28;20189;-48
2023/03/05 12:21:31;;;;;;;1.67;0.80;;;16.40;57.20;;;;;;5050364;28;20609;-47
2023/03/05 12:24:03;;;;;;;1.70;1.07;;;16.40;57.10;;;;;;5059923;28;20201;-48
2023/03/05 12:27:05;;;;;;;1.27;0.60;;;16.40;57.10;;;;;;5054061;28;20209;-48
2023/03/05 12:30:00;;;;;;;2.20;0.77;;;16.40;56.90;;;;;;5071882;28;20196;-47
2023/03/05 12:32:46;;;;;;;1.93;0.80;;;16.40;56.90;;;;;;5068215;28;20214;-48
2023/03/05 12:35:39;;;;;;;1.83;0.80;;;16.40;56.80;;;;;;5078527;28;20205;-47
2023/03/05 12:38:29;;;;;;;2.57;0.80;;;16.40;56.80;;;;;;5057838;28;20186;-47
2023/03/05 12:41:35;;;;;;;2.03;0.97;;;16.40;56.70;;;;;;5060864;28;20647;-47
2023/03/05 12:44:08;;;;;;;1.07;0.73;;;16.40;56.60;;;;;;5055439;28;20245;-47
2023/03/05 12:46:42;;;;;;;1.73;0.70;;;16.40;56.60;;;;;;5094286;28;20193;-47
2023/03/05 12:49:27;;;;;;;1.67;0.47;;;16.40;56.60;;;;;;5060812;28;20220;-47
2023/03/05 12:51:58;;;;;;;4.60;0.80;;;16.40;56.60;;;;;;5089997;28;20189;-47
2023/03/05 12:54:40;;;;;;;1.00;0.50;;;16.40;56.60;;;;;;5064803;28;20193;-47
2023/03/05 12:57:19;;;;;;;1.37;0.63;;;16.40;57.00;;;;;;5060472;28;20268;-48
2023/03/05 13:00:09;;;;;;;1.30;0.50;;;16.40;56.50;;;;;;5050155;28;20197;-48
2023/03/05 13:02:54;;;;;;;5.53;0.67;;;16.40;56.80;;;;;;5077472;28;20204;-48
2023/03/05 13:05:38;;;;;;;2.13;0.67;;;16.40;57.40;;;;;;5054227;28;20600;-48
2023/03/05 13:08:22;;;;;;;1.20;0.60;;;16.40;57.40;;;;;;5082502;28;20221;-47
2023/03/05 13:11:20;;;;;;;4.60;1.10;;;16.40;57.30;;;;;;5087431;28;20254;-48
2023/03/05 13:13:52;;;;;;;2.00;0.53;;;16.50;57.30;;;;;;5073410;28;20185;-48
2023/03/05 13:16:30;;;;;;;4.83;0.43;;;16.40;57.20;;;;;;5067462;28;20205;-48
2023/03/05 13:19:00;;;;;;;5.30;0.77;;;16.40;57.20;;;;;;5034643;28;20859;-48
2023/03/05 13:21:32;;;;;;;3.70;0.87;;;16.40;57.10;;;;;;5067066;28;20228;-47
2023/03/05 13:24:17;;;;;;;0.87;0.60;;;16.40;57.00;;;;;;5088039;28;20193;-48
2023/03/05 13:26:47;;;;;;;1.87;0.47;;;16.40;57.00;;;;;;5058204;28;20211;-47
2023/03/05 13:29:29;;;;;;;1.73;0.60;;;16.40;56.80;;;;;;5093746;28;20318;-48
2023/03/05 13:32:29;;;;;;;1.97;0.73;;;16.40;56.80;;;;;;5071658;28;20253;-48
2023/03/05 13:35:02;;;;;;;1.30;0.70;;;16.50;56.80;;;;;;5051793;28;20193;-47